Time;durP1;ratioP1;P1;durP2;ratioP2;P2;SDS_P1;SDS_P2;PMS_P1;PMS_P2;Temp;Humidity;BMP_temperature;BMP_pressure;BME280_temperature;BME280_humidity;BME280_pressure;Samples;Min_cycle;Max_cycle;Signal;HPM_P1;HPM_P2
2023/03/23 00:00:48;;;;;;;;;;;;;;;14.92;47.39;99212.16;1085499;54;19946;-81
2023/03/23 00:01:53;;;;;;;;;;;;;;;14.94;47.34;99210.13;1085908;54;19958;-80
2023/03/23 00:02:54;;;;;;;;;;;;;;;15.05;47.41;99207.94;1086230;54;19939;-79
2023/03/23 00:03:59;;;;;;;;;;;;;;;15.08;47.33;99211.06;1086664;54;19946;-81
2023/03/23 00:05:03;;;;;;;;;;;;;;;15.02;47.07;99208.31;1087014;54;19970;-79
2023/03/23 00:06:10;;;;;;;;;;;;;;;14.98;47.12;99208.69;1086861;54;19963;-82
2023/03/23 00:07:12;;;;;;;;;;;;;;;15.02;47.10;99201.03;1086838;54;19950;-81
2023/03/23 00:08:20;;;;;;;;;;;;;;;15.06;47.17;99196.97;1086358;54;20076;-81
2023/03/23 00:09:24;;;;;;;;;;;;;;;15.04;47.17;99204.38;1086329;54;19974;-81
2023/03/23 00:10:26;;;;;;;;;;;;;;;15.02;46.74;99211.00;1086123;54;19947;-80
2023/03/23 00:11:35;;;;;;;;;;;;;;;15.03;47.09;99197.34;1087362;54;19943;-82
2023/03/23 00:12:36;;;;;;;;;;;;;;;15.08;46.88;99205.69;1088252;54;19967;-80
2023/03/23 00:13:43;;;;;;;;;;;;;;;15.08;46.67;99210.22;1088024;54;20571;-81
2023/03/23 00:14:45;;;;;;;;;;;;;;;15.11;46.84;99205.25;1087879;54;19943;-82
2023/03/23 00:16:31;;;;;;;;;;;;;;;15.11;46.76;99204.44;1088025;54;19949;-81
2023/03/23 00:17:38;;;;;;;;;;;;;;;15.13;46.65;99207.78;1088647;39;20440;-80
2023/03/23 00:18:52;;;;;;;;;;;;;;;15.20;46.39;99202.44;1087992;54;19998;-80
2023/03/23 00:20:23;;;;;;;;;;;;;;;15.19;46.56;99212.38;1087988;54;20594;-81
2023/03/23 00:23:19;;;;;;;;;;;;;;;;;;;;;
2023/03/23 00:24:34;;;;;;;;;;;;;;;15.17;46.37;99213.59;1087862;54;19973;-80
2023/03/23 00:25:40;;;;;;;;;;;;;;;15.17;46.28;99205.53;1087928;54;19938;-79
2023/03/23 00:28:12;;;;;;;;;;;;;;;15.15;46.81;99203.03;1087757;54;20242;-79
2023/03/23 00:29:27;;;;;;;;;;;;;;;15.11;46.55;99202.56;1088042;54;19939;-81
2023/03/23 00:32:22;;;;;;;;;;;;;;;;;;;;;
2023/03/23 00:34:03;;;;;;;;;;;;;;;15.13;46.98;99192.44;1088033;54;19951;-81
2023/03/23 00:36:42;;;;;;;;;;;;;;;15.25;46.64;99183.84;1087777;54;19982;-81
2023/03/23 00:42:25;;;;;;;;;;;;;;;15.18;46.50;99183.78;1087867;54;19942;-81
2023/03/23 00:43:40;;;;;;;;;;;;;;;15.22;46.39;99181.53;1088114;54;19939;-81
2023/03/23 00:45:18;;;;;;;;;;;;;;;15.28;46.32;99180.75;1087962;46;20034;-81
2023/03/23 00:46:52;;;;;;;;;;;;;;;15.19;46.33;99176.56;1088025;54;19927;-81
2023/03/23 00:52:36;;;;;;;;;;;;;;;15.25;46.19;99162.31;1088239;54;19967;-81
2023/03/23 00:53:38;;;;;;;;;;;;;;;15.25;46.64;99156.91;1089128;46;19947;-80
2023/03/23 00:55:16;;;;;;;;;;;;;;;15.29;46.40;99158.19;1088288;54;19938;-81
2023/03/23 01:07:35;;;;;;;;;;;;;;;15.31;46.38;99145.34;1087507;54;19938;-81
2023/03/23 01:09:04;;;;;;;;;;;;;;;15.34;46.13;99136.88;1087510;54;19969;-80
2023/03/23 01:25:16;;;;;;;;;;;;;;;15.41;46.05;99136.94;1087573;54;20434;-79
2023/03/23 01:33:04;;;;;;;;;;;;;;;15.41;46.50;99121.59;1087883;54;19961;-79
2023/03/23 01:34:05;;;;;;;;;;;;;;;15.41;46.22;99126.97;1090250;46;19942;-81
2023/03/23 01:35:14;;;;;;;;;;;;;;;15.42;46.22;99120.56;1087950;54;19950;-81
2023/03/23 01:36:18;;;;;;;;;;;;;;;15.47;46.18;99116.44;1088091;54;19927;-80
2023/03/23 01:38:48;;;;;;;;;;;;;;;15.52;46.27;99120.22;1087528;54;19934;-79
2023/03/23 01:43:00;;;;;;;;;;;;;;;15.45;46.38;99113.94;1087706;54;20610;-80
2023/03/23 01:44:10;;;;;;;;;;;;;;;15.48;46.69;99112.72;1087786;46;19946;-78
2023/03/23 01:45:32;;;;;;;;;;;;;;;15.50;46.45;99107.94;1088882;39;20040;-80
2023/03/23 01:46:36;;;;;;;;;;;;;;;15.54;46.41;99111.94;1088459;46;19978;-78
2023/03/23 01:47:38;;;;;;;;;;;;;;;15.48;46.59;99104.66;1087583;54;19943;-79
2023/03/23 01:48:47;;;;;;;;;;;;;;;15.51;46.26;99101.53;1087712;46;19949;-80
2023/03/23 01:49:50;;;;;;;;;;;;;;;15.49;46.36;99109.81;1087211;54;19970;-81
2023/03/23 03:39:56;;;;;;;;;;;;;;;15.43;46.06;99041.44;1088287;54;19943;-82
2023/03/23 03:41:02;;;;;;;;;;;;;;;15.41;46.30;99043.50;1084837;54;20446;-78
2023/03/23 03:42:04;;;;;;;;;;;;;;;15.46;46.15;99039.38;1084821;54;19962;-79
2023/03/23 03:43:08;;;;;;;;;;;;;;;15.41;46.15;99048.06;1085486;31;20497;-79
2023/03/23 03:44:10;;;;;;;;;;;;;;;15.37;46.43;99036.03;1084908;54;19961;-79
2023/03/23 03:45:16;;;;;;;;;;;;;;;15.42;46.30;99031.69;1084942;54;19974;-79
2023/03/23 03:46:17;;;;;;;;;;;;;;;15.38;46.34;99038.53;1084533;54;19953;-79
2023/03/23 03:47:21;;;;;;;;;;;;;;;15.46;46.49;99034.00;1084578;54;19946;-79
2023/03/23 03:48:22;;;;;;;;;;;;;;;15.42;46.60;99034.38;1084069;54;19969;-79
2023/03/23 03:49:26;;;;;;;;;;;;;;;15.47;46.52;99033.78;1083509;54;19947;-79
2023/03/23 03:50:27;;;;;;;;;;;;;;;15.48;46.35;99038.13;1083736;54;19971;-79
2023/03/23 03:51:32;;;;;;;;;;;;;;;15.39;46.74;99039.34;1083646;54;19946;-79
2023/03/23 03:52:33;;;;;;;;;;;;;;;15.38;46.78;99027.75;1083674;54;19947;-79
2023/03/23 03:53:37;;;;;;;;;;;;;;;15.39;46.57;99024.03;1084866;39;20371;-79
2023/03/23 03:54:38;;;;;;;;;;;;;;;15.34;46.63;99034.56;1083837;54;19946;-79
2023/03/23 03:55:45;;;;;;;;;;;;;;;15.31;47.03;99026.88;1084155;54;20514;-78
2023/03/23 03:56:51;;;;;;;;;;;;;;;15.24;47.13;99029.56;1084199;54;19947;-79
2023/03/23 03:57:55;;;;;;;;;;;;;;;15.23;46.96;99030.59;1083809;54;19946;-79
2023/03/23 03:58:57;;;;;;;;;;;;;;;15.30;46.93;99030.63;1083638;54;19953;-79
2023/03/23 04:00:00;;;;;;;;;;;;;;;15.37;46.61;99031.47;1084106;54;19946;-79
2023/03/23 04:01:02;;;;;;;;;;;;;;;15.31;47.06;99032.25;1083711;54;19939;-79
2023/03/23 04:02:06;;;;;;;;;;;;;;;15.32;47.17;99042.00;1084066;54;19946;-79
2023/03/23 04:03:08;;;;;;;;;;;;;;;15.30;46.83;99036.00;1083509;39;20270;-78
2023/03/23 04:04:12;;;;;;;;;;;;;;;15.29;46.90;99040.56;1083729;46;19957;-77
2023/03/23 04:05:14;;;;;;;;;;;;;;;15.22;47.27;99041.53;1084554;39;20358;-78
2023/03/23 04:06:18;;;;;;;;;;;;;;;15.22;47.43;99036.16;1083339;54;19950;-78
2023/03/23 04:07:21;;;;;;;;;;;;;;;15.19;47.29;99029.31;1083375;54;19950;-78
2023/03/23 04:08:26;;;;;;;;;;;;;;;15.17;47.44;99044.00;1083427;54;19957;-79
2023/03/23 04:09:28;;;;;;;;;;;;;;;15.18;47.75;99037.59;1083659;39;20770;-79
2023/03/23 04:10:33;;;;;;;;;;;;;;;15.13;47.50;99043.59;1083289;54;20467;-78
2023/03/23 04:11:34;;;;;;;;;;;;;;;15.15;47.46;99043.38;1083114;54;19947;-79
2023/03/23 04:12:40;;;;;;;;;;;;;;;15.10;47.88;99050.19;1083268;54;19947;-79
2023/03/23 04:13:42;;;;;;;;;;;;;;;15.08;47.77;99052.25;1083181;54;19950;-78
2023/03/23 04:14:45;;;;;;;;;;;;;;;15.06;48.16;99045.41;1083466;54;19947;-79
2023/03/23 04:15:47;;;;;;;;;;;;;;;15.03;47.98;99046.63;1083693;54;19951;-79
2023/03/23 04:16:51;;;;;;;;;;;;;;;15.01;48.11;99043.31;1083987;54;20533;-79
2023/03/23 04:17:52;;;;;;;;;;;;;;;14.97;48.16;99034.78;1083762;54;19947;-80
2023/03/23 04:18:56;;;;;;;;;;;;;;;15.01;48.02;99040.63;1084715;54;19958;-79
2023/03/23 04:19:58;;;;;;;;;;;;;;;15.06;48.11;99038.16;1084933;54;20014;-78
2023/03/23 04:21:03;;;;;;;;;;;;;;;15.10;47.84;99042.13;1084346;54;19994;-79
2023/03/23 04:22:05;;;;;;;;;;;;;;;15.13;47.98;99038.19;1084463;46;19971;-79
2023/03/23 04:23:08;;;;;;;;;;;;;;;15.05;48.24;99036.50;1084343;54;19946;-79
2023/03/23 04:24:09;;;;;;;;;;;;;;;15.09;47.96;99035.06;1084070;54;19951;-80
2023/03/23 04:25:14;;;;;;;;;;;;;;;15.05;48.27;99033.81;1084528;54;19950;-80
2023/03/23 04:26:15;;;;;;;;;;;;;;;15.10;47.87;99036.75;1086055;39;20438;-79
2023/03/23 04:27:19;;;;;;;;;;;;;;;15.10;47.89;99034.06;1083625;54;19954;-78
2023/03/23 04:28:23;;;;;;;;;;;;;;;15.04;48.18;99037.53;1083037;54;19951;-79
2023/03/23 04:29:27;;;;;;;;;;;;;;;15.12;47.83;99040.03;1083292;54;19971;-79
2023/03/23 04:30:30;;;;;;;;;;;;;;;15.08;47.96;99036.09;1083140;54;19958;-80
2023/03/23 04:31:35;;;;;;;;;;;;;;;15.13;48.03;99036.31;1083598;54;19970;-79
2023/03/23 04:32:40;;;;;;;;;;;;;;;15.12;48.29;99029.28;1083408;54;20633;-79
2023/03/23 04:33:44;;;;;;;;;;;;;;;15.03;48.32;99043.09;1083223;54;19950;-79
2023/03/23 04:34:45;;;;;;;;;;;;;;;15.05;48.35;99033.81;1082837;54;20054;-78
2023/03/23 04:35:49;;;;;;;;;;;;;;;15.04;48.70;99042.09;1083484;54;20053;-78
2023/03/23 04:36:53;;;;;;;;;;;;;;;15.00;48.49;99025.50;1083338;54;19978;-79
2023/03/23 04:37:54;;;;;;;;;;;;;;;15.05;48.31;99033.81;1082893;54;19977;-79
2023/03/23 04:38:59;;;;;;;;;;;;;;;15.01;48.64;99032.56;1082421;54;20650;-78
2023/03/23 04:40:00;;;;;;;;;;;;;;;14.98;48.93;99027.56;1083023;54;19970;-78
2023/03/23 04:41:04;;;;;;;;;;;;;;;14.93;48.96;99035.38;1083316;54;19951;-78
2023/03/23 04:42:05;;;;;;;;;;;;;;;14.95;48.91;99038.72;1083323;54;19951;-78
2023/03/23 04:43:12;;;;;;;;;;;;;;;14.97;48.91;99042.84;1083779;39;20445;-78
2023/03/23 04:44:17;;;;;;;;;;;;;;;14.94;48.74;99045.13;1083099;54;19994;-78
2023/03/23 04:45:22;;;;;;;;;;;;;;;14.96;49.03;99045.75;1083137;54;20543;-78
2023/03/23 04:46:28;;;;;;;;;;;;;;;14.90;49.11;99050.06;1083270;54;19981;-78
2023/03/23 04:47:34;;;;;;;;;;;;;;;14.94;48.70;99048.66;1083384;54;19946;-79
2023/03/23 04:48:35;;;;;;;;;;;;;;;14.87;48.92;99041.56;1084579;54;19974;-78
2023/03/23 04:49:39;;;;;;;;;;;;;;;14.87;49.17;99046.94;1087486;46;19950;-79
2023/03/23 04:50:40;;;;;;;;;;;;;;;14.87;49.10;99053.16;1087986;54;19939;-79
2023/03/23 04:51:44;;;;;;;;;;;;;;;14.78;49.25;99054.34;1087842;54;19958;-78
2023/03/23 04:52:45;;;;;;;;;;;;;;;14.86;49.04;99050.66;1087819;54;19946;-78
2023/03/23 04:53:49;;;;;;;;;;;;;;;14.85;49.05;99051.69;1088166;54;19939;-80
2023/03/23 04:54:50;;;;;;;;;;;;;;;14.82;49.40;99050.22;1088111;54;19942;-79
2023/03/23 04:55:54;;;;;;;;;;;;;;;14.84;49.36;99050.00;1088851;39;20408;-79
2023/03/23 04:56:55;;;;;;;;;;;;;;;14.85;49.21;99049.00;1085170;54;20656;-79
2023/03/23 04:58:01;;;;;;;;;;;;;;;14.93;49.29;99046.13;1086650;54;19942;-79
2023/03/23 04:59:02;;;;;;;;;;;;;;;14.87;49.54;99046.94;1087979;54;19981;-79
2023/03/23 05:00:12;;;;;;;;;;;;;;;14.87;49.19;99052.31;1086414;54;19946;-77
2023/03/23 05:01:13;;;;;;;;;;;;;;;14.84;49.25;99048.19;1084990;54;20992;-78
2023/03/23 05:02:18;;;;;;;;;;;;;;;14.88;49.20;99051.31;1083647;54;19954;-78
2023/03/23 05:03:19;;;;;;;;;;;;;;;14.93;49.01;99044.31;1083418;54;19987;-79
2023/03/23 05:04:24;;;;;;;;;;;;;;;14.93;49.22;99047.00;1083894;54;19970;-78
2023/03/23 05:05:27;;;;;;;;;;;;;;;14.98;49.27;99049.91;1084458;31;20556;-78
2023/03/23 05:06:31;;;;;;;;;;;;;;;15.03;48.87;99051.19;1085471;54;19950;-82
2023/03/23 05:07:32;;;;;;;;;;;;;;;15.03;48.86;99052.00;1084198;54;19958;-79
2023/03/23 05:08:38;;;;;;;;;;;;;;;15.01;49.17;99042.47;1083354;54;19953;-79
2023/03/23 05:09:39;;;;;;;;;;;;;;;15.05;48.83;99044.56;1083654;54;19950;-78
2023/03/23 05:10:43;;;;;;;;;;;;;;;15.04;49.02;99042.91;1083726;54;19947;-79
2023/03/23 05:11:44;;;;;;;;;;;;;;;15.03;48.99;99040.41;1083876;54;19950;-79
2023/03/23 05:12:48;;;;;;;;;;;;;;;15.05;48.87;99041.88;1084173;54;19946;-80
2023/03/23 05:13:49;;;;;;;;;;;;;;;15.06;48.83;99038.16;1083577;54;19977;-77
2023/03/23 05:14:53;;;;;;;;;;;;;;;15.07;49.07;99047.91;1083167;54;19970;-79
2023/03/23 05:15:59;;;;;;;;;;;;;;;15.06;48.69;99040.03;1083239;54;19950;-79
2023/03/23 05:17:00;;;;;;;;;;;;;;;15.07;48.94;99044.34;1083092;54;19946;-79
2023/03/23 05:18:04;;;;;;;;;;;;;;;15.07;48.71;99042.50;1083251;54;19947;-78
2023/03/23 05:19:07;;;;;;;;;;;;;;;15.05;48.88;99044.56;1083203;54;19953;-77
2023/03/23 05:20:14;;;;;;;;;;;;;;;15.06;49.07;99046.22;1083173;54;19957;-78
2023/03/23 05:21:18;;;;;;;;;;;;;;;15.07;48.82;99047.91;1083317;54;19946;-78
2023/03/23 05:22:20;;;;;;;;;;;;;;;15.09;48.64;99050.38;1083362;54;19954;-79
2023/03/23 05:23:24;;;;;;;;;;;;;;;15.11;48.65;99046.44;1083410;54;19960;-77
2023/03/23 05:24:25;;;;;;;;;;;;;;;15.03;48.87;99052.00;1083147;54;19962;-80
2023/03/23 05:25:29;;;;;;;;;;;;;;;15.04;48.89;99050.97;1083119;54;19953;-79
2023/03/23 05:26:30;;;;;;;;;;;;;;;15.04;49.10;99048.28;1083371;39;20544;-79
2023/03/23 05:27:34;;;;;;;;;;;;;;;15.00;49.21;99052.41;1083159;54;19946;-80
2023/03/23 05:28:41;;;;;;;;;;;;;;;15.02;49.03;99053.03;1083091;54;20442;-79
2023/03/23 05:29:42;;;;;;;;;;;;;;;14.93;49.22;99052.38;1083249;54;20446;-79
2023/03/23 05:30:46;;;;;;;;;;;;;;;15.04;49.22;99052.84;1083258;54;19946;-79
2023/03/23 05:31:55;;;;;;;;;;;;;;;14.94;49.62;99053.19;1083484;39;20473;-79
2023/03/23 05:32:56;;;;;;;;;;;;;;;14.99;49.63;99050.75;1086182;54;20828;-78
2023/03/23 05:34:00;;;;;;;;;;;;;;;14.95;49.51;99044.09;1086389;54;20802;-77
2023/03/23 05:35:02;;;;;;;;;;;;;;;14.89;49.78;99047.59;1086367;54;19951;-78
2023/03/23 05:36:10;;;;;;;;;;;;;;;15.02;49.65;99052.22;1087369;54;19953;-77
2023/03/23 05:37:11;;;;;;;;;;;;;;;14.95;49.61;99044.09;1087562;54;19971;-77
2023/03/23 05:38:17;;;;;;;;;;;;;;;14.95;49.38;99044.09;1087333;54;20321;-79
2023/03/23 05:39:21;;;;;;;;;;;;;;;15.02;49.62;99050.34;1088274;39;20496;-81
2023/03/23 05:40:28;;;;;;;;;;;;;;;14.98;49.38;99044.53;1087964;54;19951;-80
2023/03/23 05:41:29;;;;;;;;;;;;;;;15.03;49.28;99052.00;1088738;47;19923;-83
2023/03/23 05:42:45;;;;;;;;;;;;;;;14.98;49.60;99049.91;1088552;54;19922;-80
2023/03/23 05:43:46;;;;;;;;;;;;;;;15.02;49.47;99050.34;1096567;47;19958;-80
2023/03/23 05:44:50;;;;;;;;;;;;;;;15.01;49.60;99051.41;1086832;54;19946;-78
2023/03/23 05:45:53;;;;;;;;;;;;;;;15.00;49.59;99054.25;1087485;46;19950;-78
2023/03/23 05:46:57;;;;;;;;;;;;;;;14.98;49.53;99054.47;1086753;54;19962;-78
2023/03/23 05:48:02;;;;;;;;;;;;;;;14.99;49.78;99053.44;1086750;54;19981;-78
2023/03/23 05:49:03;;;;;;;;;;;;;;;14.96;49.56;99061.91;1086411;54;19954;-78
2023/03/23 05:50:08;;;;;;;;;;;;;;;15.00;49.87;99060.50;1086628;54;19949;-79
2023/03/23 05:51:09;;;;;;;;;;;;;;;14.95;49.77;99069.16;1086652;54;19939;-79
2023/03/23 05:52:15;;;;;;;;;;;;;;;14.90;50.04;99066.22;1087164;46;19957;-79
2023/03/23 05:53:16;;;;;;;;;;;;;;;14.81;50.46;99065.56;1086252;54;20463;-80
2023/03/23 05:54:20;;;;;;;;;;;;;;;14.90;50.18;99074.28;1086590;54;19950;-79
2023/03/23 05:55:21;;;;;;;;;;;;;;;14.85;50.26;99071.38;1085918;54;19951;-78
2023/03/23 05:56:39;;;;;;;;;;;;;;;14.82;50.41;99077.13;1087532;54;19946;-81
2023/03/23 05:57:40;;;;;;;;;;;;;;;14.83;50.71;99081.47;1088015;54;19942;-83
2023/03/23 05:58:43;;;;;;;;;;;;;;;14.87;50.58;99084.63;1086977;54;19950;-77
2023/03/23 05:59:45;;;;;;;;;;;;;;;14.84;50.40;99098.44;1085948;54;19954;-78
2023/03/23 06:00:49;;;;;;;;;;;;;;;14.90;50.43;99097.69;1085902;54;19947;-78
2023/03/23 06:01:51;;;;;;;;;;;;;;;14.88;50.43;99097.84;1084899;54;19951;-79
2023/03/23 06:03:00;;;;;;;;;;;;;;;14.84;50.66;99106.50;1083367;54;19950;-78
2023/03/23 06:04:01;;;;;;;;;;;;;;;14.85;50.76;99102.81;1083284;54;19947;-79
2023/03/23 06:05:06;;;;;;;;;;;;;;;14.84;50.82;99103.81;1083914;54;20461;-78
2023/03/23 06:06:34;;;;;;;;;;;;;;;14.86;50.49;99117.91;1086789;54;19942;-81
2023/03/23 06:07:37;;;;;;;;;;;;;;;14.89;50.57;99123.75;1088535;54;19926;-83
2023/03/23 06:08:41;;;;;;;;;;;;;;;14.90;50.74;99119.22;1088758;46;19943;-83
2023/03/23 06:09:45;;;;;;;;;;;;;;;14.87;50.98;99109.69;1087743;54;19943;-80
2023/03/23 06:10:49;;;;;;;;;;;;;;;14.82;50.50;99115.66;1083702;54;19952;-78
2023/03/23 06:11:50;;;;;;;;;;;;;;;14.86;50.42;99115.22;1084080;54;19962;-82
2023/03/23 06:12:55;;;;;;;;;;;;;;;14.84;50.69;99122.66;1087467;54;19973;-80
2023/03/23 06:13:56;;;;;;;;;;;;;;;14.87;50.54;99123.13;1087441;54;19942;-81
2023/03/23 06:15:02;;;;;;;;;;;;;;;14.94;50.31;99123.16;1087482;54;20528;-81
2023/03/23 06:16:04;;;;;;;;;;;;;;;14.95;50.07;99124.81;1092600;31;20532;-81
2023/03/23 06:17:17;;;;;;;;;;;;;;;14.96;50.29;99115.72;1084990;54;19951;-83
2023/03/23 06:18:21;;;;;;;;;;;;;;;14.95;50.25;99125.66;1086873;54;19975;-79
2023/03/23 06:19:26;;;;;;;;;;;;;;;14.98;50.27;99125.25;1083240;54;19969;-78
2023/03/23 06:20:27;;;;;;;;;;;;;;;15.05;49.82;99119.94;1083736;39;20878;-78
2023/03/23 06:21:41;;;;;;;;;;;;;;;15.13;49.64;99127.84;1086810;54;19958;-80
2023/03/23 06:22:42;;;;;;;;;;;;;;;15.17;49.78;99135.53;1088197;39;20374;-81
2023/03/23 06:23:46;;;;;;;;;;;;;;;15.17;49.71;99132.84;1087648;54;19949;-80
2023/03/23 06:24:48;;;;;;;;;;;;;;;15.10;49.94;99133.66;1086809;54;19971;-80
2023/03/23 06:25:56;;;;;;;;;;;;;;;15.17;50.07;99132.84;1087200;46;19957;-79
2023/03/23 06:26:59;;;;;;;;;;;;;;;15.13;49.96;99135.09;1087121;54;19973;-81
2023/03/23 06:28:02;;;;;;;;;;;;;;;15.24;49.92;99139.09;1087423;54;19977;-81
2023/03/23 06:29:10;;;;;;;;;;;;;;;15.24;50.22;99137.25;1087116;54;19946;-81
2023/03/23 06:30:20;;;;;;;;;;;;;;;15.21;50.10;99147.59;1087512;46;19947;-82
2023/03/23 06:31:21;;;;;;;;;;;;;;;15.18;50.12;99145.28;1087076;54;19946;-81
2023/03/23 06:32:27;;;;;;;;;;;;;;;15.20;50.34;99143.22;1087265;54;19944;-80
2023/03/23 06:33:31;;;;;;;;;;;;;;;15.26;50.01;99148.63;1087178;54;19943;-80
2023/03/23 06:34:36;;;;;;;;;;;;;;;15.07;51.17;99147.47;1086962;54;19946;-79
2023/03/23 06:35:40;;;;;;;;;;;;;;;15.10;51.19;99144.41;1087374;54;19946;-81
2023/03/23 06:36:45;;;;;;;;;;;;;;;15.11;51.05;99151.44;1087577;54;19950;-81
2023/03/23 06:37:46;;;;;;;;;;;;;;;15.11;51.62;99150.63;1087403;54;20019;-80
2023/03/23 06:38:50;;;;;;;;;;;;;;;15.08;51.75;99153.69;1087566;54;19957;-82
2023/03/23 06:39:51;;;;;;;;;;;;;;;15.12;51.62;99147.72;1087484;54;19931;-79
2023/03/23 06:40:56;;;;;;;;;;;;;;;15.09;51.98;99147.28;1087227;54;19949;-80
2023/03/23 06:41:59;;;;;;;;;;;;;;;15.06;52.10;99148.50;1087621;54;20399;-79
2023/03/23 06:43:03;;;;;;;;;;;;;;;15.02;52.01;99149.09;1087538;54;19950;-81
2023/03/23 06:44:08;;;;;;;;;;;;;;;15.02;52.23;99158.00;1087468;54;19970;-80
2023/03/23 06:45:10;;;;;;;;;;;;;;;14.90;52.62;99151.50;1087564;54;19942;-81
2023/03/23 06:46:13;;;;;;;;;;;;;;;15.02;52.32;99151.78;1088322;39;20473;-80
2023/03/23 06:47:24;;;;;;;;;;;;;;;15.07;51.98;99147.47;1086585;47;19991;-77
2023/03/23 06:48:27;;;;;;;;;;;;;;;15.11;52.36;99146.03;1087714;54;19950;-81
2023/03/23 06:49:39;;;;;;;;;;;;;;;15.18;52.03;99140.72;1088145;54;19942;-83
2023/03/23 06:50:45;;;;;;;;;;;;;;;15.04;53.01;99150.56;1088269;54;19950;-82
2023/03/23 06:51:49;;;;;;;;;;;;;;;15.09;52.72;99148.13;1088160;54;19922;-82
2023/03/23 06:52:53;;;;;;;;;;;;;;;14.93;53.19;99143.88;1088380;54;19943;-82
2023/03/23 06:53:57;;;;;;;;;;;;;;;14.90;53.57;99144.25;1083717;54;19958;-79
2023/03/23 06:54:59;;;;;;;;;;;;;;;14.87;53.83;99141.13;1084331;54;19946;-79
2023/03/23 06:56:03;;;;;;;;;;;;;;;14.90;53.70;99138.03;1085624;54;19962;-78
2023/03/23 07:06:46;;;;;;;;;;;;;;;15.03;53.11;99146.19;1087804;54;19958;-81
2023/03/23 07:07:47;;;;;;;;;;;;;;;14.97;53.15;99145.13;1088920;54;19953;-82
2023/03/23 07:08:57;;;;;;;;;;;;;;;14.97;52.83;99144.31;1088735;54;19951;-81
2023/03/23 07:10:02;;;;;;;;;;;;;;;15.01;52.88;99148.28;1088816;54;19927;-81
2023/03/23 07:11:12;;;;;;;;;;;;;;;15.03;52.99;99148.88;1088620;54;20429;-81
2023/03/23 07:12:16;;;;;;;;;;;;;;;15.04;52.86;99157.81;1089568;46;19949;-80
2023/03/23 07:13:18;;;;;;;;;;;;;;;15.00;52.99;99157.38;1088782;54;19978;-81
2023/03/23 07:14:23;;;;;;;;;;;;;;;14.94;52.75;99160.81;1088740;54;19960;-82
2023/03/23 07:15:25;;;;;;;;;;;;;;;14.90;52.87;99157.69;1088813;54;19942;-83
2023/03/23 07:16:29;;;;;;;;;;;;;;;14.89;53.18;99160.59;1088876;54;19931;-85
2023/03/23 07:17:31;;;;;;;;;;;;;;;14.86;53.28;99169.88;1088832;54;19942;-83
2023/03/23 07:18:42;;;;;;;;;;;;;;;14.86;53.10;99161.81;1089138;39;20436;-81
2023/03/23 07:19:46;;;;;;;;;;;;;;;14.91;52.93;99166.63;1088807;54;19946;-81
2023/03/23 07:20:55;;;;;;;;;;;;;;;15.00;52.90;99170.84;1093452;39;20551;-81
2023/03/23 07:22:02;;;;;;;;;;;;;;;15.05;52.71;99168.38;1088751;54;19942;-82
2023/03/23 07:23:05;;;;;;;;;;;;;;;15.04;52.60;99176.66;1091571;46;19938;-85
2023/03/23 07:25:45;;;;;;;;;;;;;;;15.04;53.03;99182.84;1089231;54;19925;-83
2023/03/23 07:26:46;;;;;;;;;;;;;;;15.05;52.67;99184.53;1089243;54;19926;-83
2023/03/23 08:09:15;;;;;;;;;;;;;;;15.29;53.82;99230.91;1087740;54;19943;-82
2023/03/23 08:10:44;;;;;;;;;;;;;;;15.24;54.15;99241.41;1088708;54;19966;-85
2023/03/23 08:11:51;;;;;;;;;;;;;;;15.15;54.57;99242.56;1088831;46;19962;-82
2023/03/23 08:12:54;;;;;;;;;;;;;;;15.12;54.90;99244.63;1089475;46;20025;-84
2023/03/23 08:17:00;;;;;;;;;;;;;;;15.23;55.41;99253.19;1085267;54;19942;-79
2023/03/23 08:18:01;;;;;;;;;;;;;;;15.15;55.59;99254.19;1085071;54;19986;-79
2023/03/23 08:19:05;;;;;;;;;;;;;;;15.15;55.91;99242.56;1085312;46;19947;-79
2023/03/23 08:20:12;;;;;;;;;;;;;;;15.04;55.86;99242.06;1085162;54;19971;-80
2023/03/23 08:21:15;;;;;;;;;;;;;;;14.95;55.95;99252.16;1085643;54;19947;-80
2023/03/23 08:22:18;;;;;;;;;;;;;;;15.03;55.97;99261.09;1085867;54;19950;-79
2023/03/23 08:23:21;;;;;;;;;;;;;;;14.93;56.23;99256.88;1085375;54;19946;-80
2023/03/23 08:24:23;;;;;;;;;;;;;;;14.96;56.62;99264.59;1085063;54;19946;-79
2023/03/23 08:25:27;;;;;;;;;;;;;;;15.08;56.30;99264.88;1085000;54;19951;-79
2023/03/23 08:26:28;;;;;;;;;;;;;;;15.13;56.11;99265.13;1084411;54;19950;-80
2023/03/23 08:27:35;;;;;;;;;;;;;;;15.09;56.48;99271.09;1084826;54;20022;-79
2023/03/23 08:28:39;;;;;;;;;;;;;;;15.03;56.76;99266.50;1084284;54;19946;-80
2023/03/23 08:29:40;;;;;;;;;;;;;;;14.94;56.95;99263.94;1083610;54;20508;-81
2023/03/23 08:30:44;;;;;;;;;;;;;;;14.96;57.11;99269.13;1083749;54;19974;-78
2023/03/23 08:31:45;;;;;;;;;;;;;;;14.85;57.46;99264.25;1084273;54;19934;-79
2023/03/23 08:32:49;;;;;;;;;;;;;;;14.88;57.28;99274.63;1083664;54;19950;-79
2023/03/23 08:33:53;;;;;;;;;;;;;;;14.89;57.61;99262.84;1083836;46;19947;-79
2023/03/23 08:34:57;;;;;;;;;;;;;;;14.91;58.18;99268.88;1084925;39;20321;-79
2023/03/23 08:36:01;;;;;;;;;;;;;;;14.90;58.51;99269.91;1084841;54;19950;-78
2023/03/23 08:37:03;;;;;;;;;;;;;;;14.92;58.71;99270.53;1086874;54;19956;-78
2023/03/23 08:38:06;;;;;;;;;;;;;;;14.94;58.92;99257.69;1087014;54;20052;-78
2023/03/23 08:39:08;;;;;;;;;;;;;;;14.85;59.01;99267.78;1087124;54;19946;-77
2023/03/23 08:40:13;;;;;;;;;;;;;;;14.82;59.18;99263.63;1087037;54;19990;-77
2023/03/23 08:41:17;;;;;;;;;;;;;;;14.76;59.71;99264.38;1086951;54;19955;-77
2023/03/23 08:42:18;;;;;;;;;;;;;;;14.85;59.21;99270.47;1086617;54;19954;-77
2023/03/23 08:43:25;;;;;;;;;;;;;;;14.89;59.26;99265.53;1086947;46;20545;-77
2023/03/23 08:44:29;;;;;;;;;;;;;;;14.86;58.95;99266.75;1086343;54;19943;-77
2023/03/23 08:45:30;;;;;;;;;;;;;;;14.81;59.26;99259.25;1086767;54;20269;-79
2023/03/23 08:46:34;;;;;;;;;;;;;;;14.99;58.73;99268.75;1085841;54;20036;-77
2023/03/23 08:47:35;;;;;;;;;;;;;;;15.02;58.47;99278.28;1085819;54;19951;-76
2023/03/23 08:48:39;;;;;;;;;;;;;;;14.98;58.57;99265.19;1086350;54;20003;-78
2023/03/23 08:49:40;;;;;;;;;;;;;;;14.79;59.18;99274.75;1086632;54;19942;-78
2023/03/23 08:50:44;;;;;;;;;;;;;;;14.81;59.03;99279.94;1085366;54;19951;-78
2023/03/23 08:51:47;;;;;;;;;;;;;;;14.86;59.24;99273.97;1086571;39;20763;-78
2023/03/23 08:52:49;;;;;;;;;;;;;;;14.80;59.20;99268.34;1085708;54;19951;-78
2023/03/23 08:53:54;;;;;;;;;;;;;;;14.86;59.01;99268.59;1085472;54;19973;-78
2023/03/23 08:54:56;;;;;;;;;;;;;;;14.85;59.54;99269.63;1085635;54;19962;-78
2023/03/23 08:56:05;;;;;;;;;;;;;;;14.87;59.09;99270.25;1086114;54;19951;-78
2023/03/23 08:57:07;;;;;;;;;;;;;;;14.98;59.03;99259.81;1085606;39;20436;-79
2023/03/23 08:58:11;;;;;;;;;;;;;;;15.04;58.53;99263.59;1085454;54;19946;-79
2023/03/23 08:59:14;;;;;;;;;;;;;;;15.07;58.57;99262.38;1085402;54;19958;-78
2023/03/23 09:00:20;;;;;;;;;;;;;;;15.03;58.39;99263.81;1085806;54;19957;-79
2023/03/23 09:01:24;;;;;;;;;;;;;;;15.04;58.16;99260.91;1085791;54;19950;-79
2023/03/23 09:02:25;;;;;;;;;;;;;;;15.13;57.99;99270.50;1085368;54;19946;-78
2023/03/23 09:03:29;;;;;;;;;;;;;;;15.05;58.57;99267.97;1085632;54;19961;-78
2023/03/23 09:04:30;;;;;;;;;;;;;;;15.06;58.42;99274.19;1086589;54;19953;-78
2023/03/23 09:05:37;;;;;;;;;;;;;;;15.01;58.56;99269.38;1087302;54;19939;-79
2023/03/23 09:06:40;;;;;;;;;;;;;;;14.97;58.67;99265.41;1086752;54;19954;-78
2023/03/23 09:07:43;;;;;;;;;;;;;;;15.06;58.61;99264.25;1085986;54;19954;-78
2023/03/23 09:08:47;;;;;;;;;;;;;;;15.21;57.76;99258.78;1085848;54;19947;-78
2023/03/23 09:09:51;;;;;;;;;;;;;;;15.15;57.90;99258.72;1085061;54;19998;-79
2023/03/23 09:10:52;;;;;;;;;;;;;;;15.18;58.03;99258.34;1087141;46;19966;-77
2023/03/23 09:11:56;;;;;;;;;;;;;;;15.23;57.63;99272.03;1085841;54;20010;-78
2023/03/23 09:12:59;;;;;;;;;;;;;;;15.23;57.75;99272.03;1085833;46;19947;-77
2023/03/23 09:14:03;;;;;;;;;;;;;;;15.22;57.65;99275.75;1085907;39;20401;-78
2023/03/23 09:15:08;;;;;;;;;;;;;;;15.17;58.07;99268.25;1085830;54;19946;-80
2023/03/23 09:16:12;;;;;;;;;;;;;;;15.13;57.66;99275.91;1085969;54;19982;-80
2023/03/23 09:17:13;;;;;;;;;;;;;;;15.11;57.84;99275.25;1085716;54;19974;-79